sensor_id;sensor_type;location;lat;lon;timestamp;pressure;altitude;pressure_sealevel;temperature
48894;BMP280;34710;35.798;139.446;2022-09-24T00:01:46;100089.41;;;27.21
48894;BMP280;34710;35.798;139.446;2022-09-24T00:04:15;100087.96;;;27.26
48894;BMP280;34710;35.798;139.446;2022-09-24T00:06:46;100080.61;;;27.47
48894;BMP280;34710;35.798;139.446;2022-09-24T00:09:17;100068.60;;;27.20
48894;BMP280;34710;35.798;139.446;2022-09-24T00:11:47;100067.58;;;27.29
48894;BMP280;34710;35.798;139.446;2022-09-24T00:14:17;100064.17;;;27.34
48894;BMP280;34710;35.798;139.446;2022-09-24T00:16:46;100057.33;;;27.43
48894;BMP280;34710;35.798;139.446;2022-09-24T00:19:16;100054.52;;;27.26
48894;BMP280;34710;35.798;139.446;2022-09-24T00:21:45;100052.72;;;27.19
48894;BMP280;34710;35.798;139.446;2022-09-24T00:24:16;100057.30;;;27.49
48894;BMP280;34710;35.798;139.446;2022-09-24T00:26:45;100060.84;;;27.51
48894;BMP280;34710;35.798;139.446;2022-09-24T00:29:18;100059.94;;;27.14
48894;BMP280;34710;35.798;139.446;2022-09-24T00:31:48;100057.82;;;27.22
48894;BMP280;34710;35.798;139.446;2022-09-24T00:34:18;100059.18;;;27.29
48894;BMP280;34710;35.798;139.446;2022-09-24T00:36:48;100065.48;;;27.57
48894;BMP280;34710;35.798;139.446;2022-09-24T00:39:18;100069.39;;;27.07
48894;BMP280;34710;35.798;139.446;2022-09-24T00:41:47;100074.14;;;27.39
48894;BMP280;34710;35.798;139.446;2022-09-24T00:44:49;100073.65;;;27.50
48894;BMP280;34710;35.798;139.446;2022-09-24T00:47:26;100074.57;;;27.18
48894;BMP280;34710;35.798;139.446;2022-09-24T00:50:02;100072.31;;;27.51
48894;BMP280;34710;35.798;139.446;2022-09-24T00:52:33;100068.66;;;27.06
48894;BMP280;34710;35.798;139.446;2022-09-24T00:55:04;100066.17;;;27.40
48894;BMP280;34710;35.798;139.446;2022-09-24T00:57:34;100058.80;;;27.14
48894;BMP280;34710;35.798;139.446;2022-09-24T01:00:05;100053.60;;;27.12
48894;BMP280;34710;35.798;139.446;2022-09-24T01:02:36;100047.27;;;27.32
48894;BMP280;34710;35.798;139.446;2022-09-24T01:05:09;100036.77;;;27.07
48894;BMP280;34710;35.798;139.446;2022-09-24T01:07:38;100036.66;;;26.85
48894;BMP280;34710;35.798;139.446;2022-09-24T01:10:08;100048.02;;;26.89
48894;BMP280;34710;35.798;139.446;2022-09-24T01:12:42;100046.22;;;27.55
48894;BMP280;34710;35.798;139.446;2022-09-24T01:15:22;100049.96;;;27.15
48894;BMP280;34710;35.798;139.446;2022-09-24T01:17:59;100056.81;;;27.35
48894;BMP280;34710;35.798;139.446;2022-09-24T01:20:59;100046.32;;;27.07
48894;BMP280;34710;35.798;139.446;2022-09-24T01:24:02;100030.02;;;27.09
48894;BMP280;34710;35.798;139.446;2022-09-24T01:26:47;100040.68;;;27.19
48894;BMP280;34710;35.798;139.446;2022-09-24T01:29:30;100047.91;;;27.32
48894;BMP280;34710;35.798;139.446;2022-09-24T01:32:07;100044.08;;;27.40
48894;BMP280;34710;35.798;139.446;2022-09-24T01:34:42;100043.90;;;27.56
48894;BMP280;34710;35.798;139.446;2022-09-24T01:37:15;100050.41;;;27.50
48894;BMP280;34710;35.798;139.446;2022-09-24T01:39:47;100052.29;;;27.25
48894;BMP280;34710;35.798;139.446;2022-09-24T01:42:19;100041.33;;;27.16
48894;BMP280;34710;35.798;139.446;2022-09-24T01:44:50;100043.92;;;27.54
48894;BMP280;34710;35.798;139.446;2022-09-24T01:47:22;100045.03;;;26.96
48894;BMP280;34710;35.798;139.446;2022-09-24T01:49:53;100045.05;;;27.35
48894;BMP280;34710;35.798;139.446;2022-09-24T01:52:26;100040.90;;;27.01
48894;BMP280;34710;35.798;139.446;2022-09-24T01:55:00;100044.20;;;26.61
48894;BMP280;34710;35.798;139.446;2022-09-24T01:57:35;100043.38;;;27.31
48894;BMP280;34710;35.798;139.446;2022-09-24T02:00:10;100045.72;;;27.35
48894;BMP280;34710;35.798;139.446;2022-09-24T02:02:44;100043.15;;;27.17
48894;BMP280;34710;35.798;139.446;2022-09-24T02:05:19;100038.45;;;27.07
48894;BMP280;34710;35.798;139.446;2022-09-24T02:07:56;100040.12;;;27.41
48894;BMP280;34710;35.798;139.446;2022-09-24T02:10:28;100033.59;;;27.34
48894;BMP280;34710;35.798;139.446;2022-09-24T02:13:02;100028.84;;;27.22
48894;BMP280;34710;35.798;139.446;2022-09-24T02:15:35;100024.88;;;27.34
48894;BMP280;34710;35.798;139.446;2022-09-24T02:18:08;100029.82;;;27.51
48894;BMP280;34710;35.798;139.446;2022-09-24T02:20:40;100030.76;;;27.17
48894;BMP280;34710;35.798;139.446;2022-09-24T02:23:11;100029.03;;;27.31
48894;BMP280;34710;35.798;139.446;2022-09-24T02:25:45;100020.77;;;27.48
48894;BMP280;34710;35.798;139.446;2022-09-24T02:28:18;100011.36;;;27.33
48894;BMP280;34710;35.798;139.446;2022-09-24T02:30:52;100005.05;;;27.42
48894;BMP280;34710;35.798;139.446;2022-09-24T02:33:24;99993.47;;;27.05
48894;BMP280;34710;35.798;139.446;2022-09-24T02:35:53;99992.52;;;27.29
48894;BMP280;34710;35.798;139.446;2022-09-24T02:38:23;99998.76;;;26.88
48894;BMP280;34710;35.798;139.446;2022-09-24T02:40:52;100003.26;;;27.19
48894;BMP280;34710;35.798;139.446;2022-09-24T02:43:23;100003.14;;;27.67
48894;BMP280;34710;35.798;139.446;2022-09-24T02:45:52;100004.23;;;27.75
48894;BMP280;34710;35.798;139.446;2022-09-24T02:48:21;100002.25;;;27.61
48894;BMP280;34710;35.798;139.446;2022-09-24T02:50:51;99996.70;;;27.84
48894;BMP280;34710;35.798;139.446;2022-09-24T02:53:20;99994.17;;;27.30
48894;BMP280;34710;35.798;139.446;2022-09-24T02:55:50;99994.32;;;27.49
48894;BMP280;34710;35.798;139.446;2022-09-24T02:58:20;99991.84;;;27.37
48894;BMP280;34710;35.798;139.446;2022-09-24T03:00:49;99988.19;;;27.51
48894;BMP280;34710;35.798;139.446;2022-09-24T03:03:18;99986.86;;;27.39
48894;BMP280;34710;35.798;139.446;2022-09-24T03:05:48;99978.41;;;27.36
48894;BMP280;34710;35.798;139.446;2022-09-24T03:08:18;99969.09;;;26.99
48894;BMP280;34710;35.798;139.446;2022-09-24T03:10:48;99965.25;;;27.29
48894;BMP280;34710;35.798;139.446;2022-09-24T03:13:17;99959.40;;;27.30
48894;BMP280;34710;35.798;139.446;2022-09-24T03:15:47;99959.89;;;27.56
48894;BMP280;34710;35.798;139.446;2022-09-24T03:18:16;99961.70;;;26.90
48894;BMP280;34710;35.798;139.446;2022-09-24T03:20:54;99962.86;;;27.33
48894;BMP280;34710;35.798;139.446;2022-09-24T03:23:24;99963.02;;;27.60
48894;BMP280;34710;35.798;139.446;2022-09-24T03:25:54;99958.23;;;27.70
48894;BMP280;34710;35.798;139.446;2022-09-24T03:28:23;99950.15;;;27.90
48894;BMP280;34710;35.798;139.446;2022-09-24T03:30:53;99943.70;;;28.00
48894;BMP280;34710;35.798;139.446;2022-09-24T03:33:22;99937.95;;;28.32
48894;BMP280;34710;35.798;139.446;2022-09-24T03:35:56;99935.06;;;28.70
48894;BMP280;34710;35.798;139.446;2022-09-24T03:38:26;99939.37;;;28.60
48894;BMP280;34710;35.798;139.446;2022-09-24T03:40:56;99944.13;;;28.60
48894;BMP280;34710;35.798;139.446;2022-09-24T03:43:26;99946.57;;;28.51
48894;BMP280;34710;35.798;139.446;2022-09-24T03:45:55;99942.98;;;28.99
48894;BMP280;34710;35.798;139.446;2022-09-24T03:48:25;99940.21;;;28.69
48894;BMP280;34710;35.798;139.446;2022-09-24T03:50:55;99939.46;;;28.66
48894;BMP280;34710;35.798;139.446;2022-09-24T03:53:24;99934.28;;;28.73
48894;BMP280;34710;35.798;139.446;2022-09-24T03:55:55;99928.20;;;28.09
48894;BMP280;34710;35.798;139.446;2022-09-24T03:58:25;99919.00;;;27.98
48894;BMP280;34710;35.798;139.446;2022-09-24T04:00:54;99913.36;;;28.37
48894;BMP280;34710;35.798;139.446;2022-09-24T04:03:25;99909.42;;;28.67
48894;BMP280;34710;35.798;139.446;2022-09-24T04:05:54;99905.06;;;28.74
48894;BMP280;34710;35.798;139.446;2022-09-24T04:08:24;99902.47;;;28.85
48894;BMP280;34710;35.798;139.446;2022-09-24T04:10:53;99899.78;;;29.33
48894;BMP280;34710;35.798;139.446;2022-09-24T04:13:22;99894.36;;;28.93
48894;BMP280;34710;35.798;139.446;2022-09-24T04:15:52;99892.98;;;28.85
48894;BMP280;34710;35.798;139.446;2022-09-24T04:18:21;99888.10;;;29.11
48894;BMP280;34710;35.798;139.446;2022-09-24T04:20:50;99887.44;;;28.95
48894;BMP280;34710;35.798;139.446;2022-09-24T04:23:25;99887.16;;;29.03
48894;BMP280;34710;35.798;139.446;2022-09-24T04:25:54;99884.76;;;29.13
48894;BMP280;34710;35.798;139.446;2022-09-24T04:28:23;99888.24;;;29.12
48894;BMP280;34710;35.798;139.446;2022-09-24T04:30:53;99890.29;;;29.35
48894;BMP280;34710;35.798;139.446;2022-09-24T04:33:22;99898.84;;;29.62
48894;BMP280;34710;35.798;139.446;2022-09-24T04:35:51;99907.14;;;29.11
48894;BMP280;34710;35.798;139.446;2022-09-24T04:38:21;99908.96;;;29.15
48894;BMP280;34710;35.798;139.446;2022-09-24T04:40:51;99907.03;;;29.00
48894;BMP280;34710;35.798;139.446;2022-09-24T04:43:20;99907.50;;;28.83
48894;BMP280;34710;35.798;139.446;2022-09-24T04:45:50;99912.69;;;29.28
48894;BMP280;34710;35.798;139.446;2022-09-24T04:48:19;99916.90;;;29.22
48894;BMP280;34710;35.798;139.446;2022-09-24T04:50:48;99916.38;;;29.04
48894;BMP280;34710;35.798;139.446;2022-09-24T04:53:17;99910.95;;;28.84
48894;BMP280;34710;35.798;139.446;2022-09-24T04:55:46;99905.69;;;29.22
48894;BMP280;34710;35.798;139.446;2022-09-24T04:58:16;99896.44;;;29.13
48894;BMP280;34710;35.798;139.446;2022-09-24T05:00:46;99887.96;;;29.48
48894;BMP280;34710;35.798;139.446;2022-09-24T05:03:17;99883.85;;;29.36
48894;BMP280;34710;35.798;139.446;2022-09-24T05:05:45;99878.66;;;29.26
48894;BMP280;34710;35.798;139.446;2022-09-24T05:08:15;99874.31;;;29.33
48894;BMP280;34710;35.798;139.446;2022-09-24T05:10:44;99869.47;;;29.84
48894;BMP280;34710;35.798;139.446;2022-09-24T05:13:15;99872.53;;;29.79
48894;BMP280;34710;35.798;139.446;2022-09-24T05:15:44;99880.33;;;28.64
48894;BMP280;34710;35.798;139.446;2022-09-24T05:18:14;99886.20;;;29.49
48894;BMP280;34710;35.798;139.446;2022-09-24T05:20:43;99891.06;;;29.41
48894;BMP280;34710;35.798;139.446;2022-09-24T05:23:13;99889.70;;;29.20
48894;BMP280;34710;35.798;139.446;2022-09-24T05:25:43;99889.95;;;29.22
48894;BMP280;34710;35.798;139.446;2022-09-24T05:28:12;99885.24;;;29.36
48894;BMP280;34710;35.798;139.446;2022-09-24T05:30:41;99883.21;;;29.45
48894;BMP280;34710;35.798;139.446;2022-09-24T05:33:11;99887.02;;;29.97
48894;BMP280;34710;35.798;139.446;2022-09-24T05:35:40;99890.81;;;30.51
48894;BMP280;34710;35.798;139.446;2022-09-24T05:38:10;99900.07;;;30.46
48894;BMP280;34710;35.798;139.446;2022-09-24T05:40:39;99900.36;;;30.71
48894;BMP280;34710;35.798;139.446;2022-09-24T05:43:10;99898.81;;;30.34
48894;BMP280;34710;35.798;139.446;2022-09-24T05:45:39;99903.00;;;30.11
48894;BMP280;34710;35.798;139.446;2022-09-24T05:48:09;99901.89;;;30.02
48894;BMP280;34710;35.798;139.446;2022-09-24T05:50:38;99901.88;;;29.95
48894;BMP280;34710;35.798;139.446;2022-09-24T05:53:07;99902.29;;;29.95
48894;BMP280;34710;35.798;139.446;2022-09-24T05:55:37;99904.10;;;29.92
48894;BMP280;34710;35.798;139.446;2022-09-24T05:58:08;99908.49;;;29.97
48894;BMP280;34710;35.798;139.446;2022-09-24T06:00:38;99908.48;;;29.79
48894;BMP280;34710;35.798;139.446;2022-09-24T06:03:11;99908.50;;;29.87
48894;BMP280;34710;35.798;139.446;2022-09-24T06:05:44;99913.96;;;30.09
48894;BMP280;34710;35.798;139.446;2022-09-24T06:08:16;99915.00;;;30.40
48894;BMP280;34710;35.798;139.446;2022-09-24T06:10:47;99916.79;;;30.59
48894;BMP280;34710;35.798;139.446;2022-09-24T06:13:18;99918.00;;;30.58
48894;BMP280;34710;35.798;139.446;2022-09-24T06:15:48;99917.97;;;30.41
48894;BMP280;34710;35.798;139.446;2022-09-24T06:18:17;99929.99;;;29.34
48894;BMP280;34710;35.798;139.446;2022-09-24T06:20:47;99943.44;;;29.16
48894;BMP280;34710;35.798;139.446;2022-09-24T06:23:16;99953.36;;;28.95
48894;BMP280;34710;35.798;139.446;2022-09-24T06:25:49;99959.39;;;29.53
48894;BMP280;34710;35.798;139.446;2022-09-24T06:28:18;99959.89;;;28.62
48894;BMP280;34710;35.798;139.446;2022-09-24T06:30:47;99957.66;;;27.96
48894;BMP280;34710;35.798;139.446;2022-09-24T06:33:18;99957.31;;;28.53
48894;BMP280;34710;35.798;139.446;2022-09-24T06:35:48;99952.68;;;28.94
48894;BMP280;34710;35.798;139.446;2022-09-24T06:38:18;99952.96;;;28.75
48894;BMP280;34710;35.798;139.446;2022-09-24T06:40:48;99954.54;;;29.52
48894;BMP280;34710;35.798;139.446;2022-09-24T06:43:17;99953.66;;;28.76
48894;BMP280;34710;35.798;139.446;2022-09-24T06:45:46;99955.42;;;29.25
48894;BMP280;34710;35.798;139.446;2022-09-24T06:48:16;99959.46;;;28.77
48894;BMP280;34710;35.798;139.446;2022-09-24T06:50:45;99966.13;;;29.22
48894;BMP280;34710;35.798;139.446;2022-09-24T06:53:15;99970.49;;;29.64
48894;BMP280;34710;35.798;139.446;2022-09-24T06:55:45;99971.79;;;29.41
48894;BMP280;34710;35.798;139.446;2022-09-24T06:58:16;99969.81;;;29.40
48894;BMP280;34710;35.798;139.446;2022-09-24T07:00:52;99966.03;;;29.75
48894;BMP280;34710;35.798;139.446;2022-09-24T07:03:22;99966.56;;;29.40
48894;BMP280;34710;35.798;139.446;2022-09-24T07:05:52;99965.89;;;29.60
48894;BMP280;34710;35.798;139.446;2022-09-24T07:08:22;99967.43;;;29.75
48894;BMP280;34710;35.798;139.446;2022-09-24T07:10:51;99972.71;;;29.78
48894;BMP280;34710;35.798;139.446;2022-09-24T07:13:21;99972.77;;;29.36
48894;BMP280;34710;35.798;139.446;2022-09-24T07:15:50;99967.37;;;29.75
48894;BMP280;34710;35.798;139.446;2022-09-24T07:18:20;99955.77;;;29.03
48894;BMP280;34710;35.798;139.446;2022-09-24T07:20:53;99943.96;;;29.49
48894;BMP280;34710;35.798;139.446;2022-09-24T07:23:23;99933.11;;;29.17
48894;BMP280;34710;35.798;139.446;2022-09-24T07:25:56;99924.39;;;29.05
48894;BMP280;34710;35.798;139.446;2022-09-24T07:28:25;99925.68;;;29.12
48894;BMP280;34710;35.798;139.446;2022-09-24T07:30:59;99929.01;;;28.41
48894;BMP280;34710;35.798;139.446;2022-09-24T07:33:31;99932.05;;;28.46
48894;BMP280;34710;35.798;139.446;2022-09-24T07:36:04;99933.85;;;28.78
48894;BMP280;34710;35.798;139.446;2022-09-24T07:38:34;99938.81;;;28.81
48894;BMP280;34710;35.798;139.446;2022-09-24T07:41:03;99943.32;;;29.02
48894;BMP280;34710;35.798;139.446;2022-09-24T07:43:32;99950.04;;;29.07
48894;BMP280;34710;35.798;139.446;2022-09-24T07:46:02;99955.51;;;28.97
48894;BMP280;34710;35.798;139.446;2022-09-24T07:48:31;99967.99;;;28.96
48894;BMP280;34710;35.798;139.446;2022-09-24T07:51:00;99972.61;;;29.38
48894;BMP280;34710;35.798;139.446;2022-09-24T07:53:29;99977.46;;;28.83
48894;BMP280;34710;35.798;139.446;2022-09-24T07:55:59;99973.97;;;29.19
48894;BMP280;34710;35.798;139.446;2022-09-24T07:58:29;99968.33;;;29.07
48894;BMP280;34710;35.798;139.446;2022-09-24T08:00:59;99966.35;;;29.48
48894;BMP280;34710;35.798;139.446;2022-09-24T08:03:29;99966.52;;;29.30
48894;BMP280;34710;35.798;139.446;2022-09-24T08:05:58;99974.34;;;29.47
48894;BMP280;34710;35.798;139.446;2022-09-24T08:08:28;99978.90;;;29.41
48894;BMP280;34710;35.798;139.446;2022-09-24T08:11:00;99979.12;;;29.14
48894;BMP280;34710;35.798;139.446;2022-09-24T08:13:30;99982.25;;;29.43
48894;BMP280;34710;35.798;139.446;2022-09-24T08:16:01;99986.58;;;29.61
48894;BMP280;34710;35.798;139.446;2022-09-24T08:18:31;99986.34;;;29.58
48894;BMP280;34710;35.798;139.446;2022-09-24T08:21:04;99985.11;;;29.45
48894;BMP280;34710;35.798;139.446;2022-09-24T08:23:34;99989.49;;;29.35
48894;BMP280;34710;35.798;139.446;2022-09-24T08:26:03;99987.79;;;29.24
48894;BMP280;34710;35.798;139.446;2022-09-24T08:28:33;99988.29;;;29.23
48894;BMP280;34710;35.798;139.446;2022-09-24T08:31:03;99989.17;;;29.18
48894;BMP280;34710;35.798;139.446;2022-09-24T08:33:33;99993.56;;;29.23
48894;BMP280;34710;35.798;139.446;2022-09-24T08:36:04;99994.30;;;29.23
48894;BMP280;34710;35.798;139.446;2022-09-24T08:38:35;99997.70;;;29.11
48894;BMP280;34710;35.798;139.446;2022-09-24T08:41:17;100003.99;;;29.16
48894;BMP280;34710;35.798;139.446;2022-09-24T08:43:57;100013.88;;;29.36
48894;BMP280;34710;35.798;139.446;2022-09-24T08:46:34;100028.71;;;29.31
48894;BMP280;34710;35.798;139.446;2022-09-24T08:49:09;100039.86;;;29.00
48894;BMP280;34710;35.798;139.446;2022-09-24T08:51:45;100044.92;;;28.75
48894;BMP280;34710;35.798;139.446;2022-09-24T08:54:18;100046.09;;;28.80
48894;BMP280;34710;35.798;139.446;2022-09-24T08:56:49;100045.26;;;29.03
48894;BMP280;34710;35.798;139.446;2022-09-24T08:59:26;100046.16;;;28.77
48894;BMP280;34710;35.798;139.446;2022-09-24T09:02:06;100044.15;;;28.95
48894;BMP280;34710;35.798;139.446;2022-09-24T09:05:00;100044.04;;;28.46
48894;BMP280;34710;35.798;139.446;2022-09-24T09:07:34;100045.37;;;28.72
48894;BMP280;34710;35.798;139.446;2022-09-24T09:10:13;100044.58;;;28.64
48894;BMP280;34710;35.798;139.446;2022-09-24T09:12:46;100041.19;;;28.43
48894;BMP280;34710;35.798;139.446;2022-09-24T09:15:19;100040.22;;;28.38
48894;BMP280;34710;35.798;139.446;2022-09-24T09:17:53;100036.79;;;28.69
48894;BMP280;34710;35.798;139.446;2022-09-24T09:20:26;100034.46;;;28.14
48894;BMP280;34710;35.798;139.446;2022-09-24T09:23:11;100032.35;;;28.44
48894;BMP280;34710;35.798;139.446;2022-09-24T09:25:45;100032.51;;;28.38
48894;BMP280;34710;35.798;139.446;2022-09-24T09:28:16;100030.54;;;28.26
48894;BMP280;34710;35.798;139.446;2022-09-24T09:30:53;100033.54;;;28.48
48894;BMP280;34710;35.798;139.446;2022-09-24T09:33:34;100034.87;;;27.95
48894;BMP280;34710;35.798;139.446;2022-09-24T09:36:33;100035.10;;;28.16
48894;BMP280;34710;35.798;139.446;2022-09-24T09:39:19;100044.31;;;28.17
48894;BMP280;34710;35.798;139.446;2022-09-24T09:41:54;100049.19;;;28.10
48894;BMP280;34710;35.798;139.446;2022-09-24T09:44:26;100046.93;;;28.09
48894;BMP280;34710;35.798;139.446;2022-09-24T09:47:03;100045.67;;;27.94
48894;BMP280;34710;35.798;139.446;2022-09-24T09:49:37;100048.05;;;28.00
48894;BMP280;34710;35.798;139.446;2022-09-24T09:52:14;100053.08;;;27.74
48894;BMP280;34710;35.798;139.446;2022-09-24T09:54:43;100057.47;;;27.69
48894;BMP280;34710;35.798;139.446;2022-09-24T09:57:17;100060.91;;;27.94
48894;BMP280;34710;35.798;139.446;2022-09-24T09:59:48;100064.42;;;28.00
48894;BMP280;34710;35.798;139.446;2022-09-24T10:02:23;100067.86;;;27.44
48894;BMP280;34710;35.798;139.446;2022-09-24T10:04:57;100075.34;;;27.67
48894;BMP280;34710;35.798;139.446;2022-09-24T10:07:27;100080.47;;;27.49
48894;BMP280;34710;35.798;139.446;2022-09-24T10:10:02;100077.32;;;27.81
48894;BMP280;34710;35.798;139.446;2022-09-24T10:12:40;100078.52;;;27.87
48894;BMP280;34710;35.798;139.446;2022-09-24T10:15:17;100082.80;;;28.15
48894;BMP280;34710;35.798;139.446;2022-09-24T10:17:48;100088.48;;;28.19
48894;BMP280;34710;35.798;139.446;2022-09-24T10:20:20;100084.52;;;27.91
48894;BMP280;34710;35.798;139.446;2022-09-24T10:22:52;100083.16;;;27.93
48894;BMP280;34710;35.798;139.446;2022-09-24T10:25:25;100083.79;;;28.05
48894;BMP280;34710;35.798;139.446;2022-09-24T10:27:57;100089.20;;;28.15
48894;BMP280;34710;35.798;139.446;2022-09-24T10:30:27;100094.14;;;28.10
48894;BMP280;34710;35.798;139.446;2022-09-24T10:32:58;100097.78;;;28.49
48894;BMP280;34710;35.798;139.446;2022-09-24T10:35:29;100099.73;;;28.55
48894;BMP280;34710;35.798;139.446;2022-09-24T10:38:01;100101.70;;;28.29
48894;BMP280;34710;35.798;139.446;2022-09-24T10:40:37;100106.86;;;28.16
48894;BMP280;34710;35.798;139.446;2022-09-24T10:43:18;100114.91;;;28.50
48894;BMP280;34710;35.798;139.446;2022-09-24T10:46:35;100118.70;;;28.81
48894;BMP280;34710;35.798;139.446;2022-09-24T10:49:14;100117.85;;;28.13
48894;BMP280;34710;35.798;139.446;2022-09-24T10:51:54;100118.63;;;28.09
48894;BMP280;34710;35.798;139.446;2022-09-24T10:54:38;100123.01;;;28.05
48894;BMP280;34710;35.798;139.446;2022-09-24T10:57:21;100125.49;;;28.12
48894;BMP280;34710;35.798;139.446;2022-09-24T11:00:02;100130.80;;;27.90
48894;BMP280;34710;35.798;139.446;2022-09-24T11:03:10;100126.74;;;27.91
48894;BMP280;34710;35.798;139.446;2022-09-24T11:05:51;100138.09;;;28.00
48894;BMP280;34710;35.798;139.446;2022-09-24T11:08:26;100136.02;;;27.60
48894;BMP280;34710;35.798;139.446;2022-09-24T11:11:07;100140.34;;;27.99
48894;BMP280;34710;35.798;139.446;2022-09-24T11:13:46;100138.79;;;27.93
48894;BMP280;34710;35.798;139.446;2022-09-24T11:16:59;100139.86;;;27.81
48894;BMP280;34710;35.798;139.446;2022-09-24T11:19:47;100144.23;;;27.95
48894;BMP280;34710;35.798;139.446;2022-09-24T11:22:25;100145.48;;;27.46
48894;BMP280;34710;35.798;139.446;2022-09-24T11:25:16;100151.87;;;27.67
48894;BMP280;34710;35.798;139.446;2022-09-24T11:27:57;100156.46;;;27.58
48894;BMP280;34710;35.798;139.446;2022-09-24T11:30:34;100155.54;;;27.55
48894;BMP280;34710;35.798;139.446;2022-09-24T11:33:20;100156.16;;;27.73
48894;BMP280;34710;35.798;139.446;2022-09-24T11:36:03;100165.81;;;27.92
48894;BMP280;34710;35.798;139.446;2022-09-24T11:38:45;100169.76;;;28.00
48894;BMP280;34710;35.798;139.446;2022-09-24T11:41:31;100175.32;;;27.51
48894;BMP280;34710;35.798;139.446;2022-09-24T11:44:22;100181.62;;;28.09
48894;BMP280;34710;35.798;139.446;2022-09-24T11:47:06;100183.31;;;27.95
48894;BMP280;34710;35.798;139.446;2022-09-24T11:50:10;100179.91;;;27.99
48894;BMP280;34710;35.798;139.446;2022-09-24T11:52:46;100180.45;;;27.92
48894;BMP280;34710;35.798;139.446;2022-09-24T11:55:20;100191.59;;;27.89
48894;BMP280;34710;35.798;139.446;2022-09-24T11:57:55;100195.56;;;27.93
48894;BMP280;34710;35.798;139.446;2022-09-24T12:00:33;100196.03;;;27.86
48894;BMP280;34710;35.798;139.446;2022-09-24T12:03:10;100199.30;;;27.90
48894;BMP280;34710;35.798;139.446;2022-09-24T12:05:44;100203.43;;;27.90
48894;BMP280;34710;35.798;139.446;2022-09-24T12:08:19;100203.52;;;27.62
48894;BMP280;34710;35.798;139.446;2022-09-24T12:10:55;100204.65;;;27.83
48894;BMP280;34710;35.798;139.446;2022-09-24T12:13:32;100212.47;;;27.79
48894;BMP280;34710;35.798;139.446;2022-09-24T12:16:07;100212.57;;;27.77
48894;BMP280;34710;35.798;139.446;2022-09-24T12:18:44;100212.66;;;27.74
48894;BMP280;34710;35.798;139.446;2022-09-24T12:21:18;100219.64;;;27.83
48894;BMP280;34710;35.798;139.446;2022-09-24T12:23:50;100220.16;;;27.73
48894;BMP280;34710;35.798;139.446;2022-09-24T12:26:22;100219.30;;;27.64
48894;BMP280;34710;35.798;139.446;2022-09-24T12:28:57;100220.24;;;27.82
48894;BMP280;34710;35.798;139.446;2022-09-24T12:31:32;100217.13;;;27.81
48894;BMP280;34710;35.798;139.446;2022-09-24T12:34:12;100210.03;;;27.69
48894;BMP280;34710;35.798;139.446;2022-09-24T12:36:56;100214.47;;;27.55
48894;BMP280;34710;35.798;139.446;2022-09-24T12:39:30;100223.18;;;27.69
48894;BMP280;34710;35.798;139.446;2022-09-24T12:42:07;100224.85;;;27.65
48894;BMP280;34710;35.798;139.446;2022-09-24T12:44:42;100227.02;;;27.55
48894;BMP280;34710;35.798;139.446;2022-09-24T12:47:18;100228.71;;;27.92
48894;BMP280;34710;35.798;139.446;2022-09-24T12:49:52;100235.81;;;27.59
48894;BMP280;34710;35.798;139.446;2022-09-24T12:52:30;100236.32;;;27.30
48894;BMP280;34710;35.798;139.446;2022-09-24T12:55:01;100236.37;;;27.62
48894;BMP280;34710;35.798;139.446;2022-09-24T12:57:34;100235.52;;;27.63
48894;BMP280;34710;35.798;139.446;2022-09-24T13:00:34;100236.26;;;27.74
48894;BMP280;34710;35.798;139.446;2022-09-24T13:03:04;100237.60;;;27.29
48894;BMP280;34710;35.798;139.446;2022-09-24T13:05:46;100237.82;;;27.55
48894;BMP280;34710;35.798;139.446;2022-09-24T13:08:25;100238.74;;;27.48
48894;BMP280;34710;35.798;139.446;2022-09-24T13:10:56;100236.76;;;27.79
48894;BMP280;34710;35.798;139.446;2022-09-24T13:13:27;100236.83;;;27.80
48894;BMP280;34710;35.798;139.446;2022-09-24T13:16:01;100238.36;;;27.86
48894;BMP280;34710;35.798;139.446;2022-09-24T13:18:33;100237.86;;;27.74
48894;BMP280;34710;35.798;139.446;2022-09-24T13:21:05;100236.41;;;27.76
48894;BMP280;34710;35.798;139.446;2022-09-24T13:23:49;100234.27;;;27.79
48894;BMP280;34710;35.798;139.446;2022-09-24T13:26:34;100246.59;;;27.52
48894;BMP280;34710;35.798;139.446;2022-09-24T13:29:19;100254.06;;;27.70
48894;BMP280;34710;35.798;139.446;2022-09-24T13:31:54;100255.22;;;27.67
48894;BMP280;34710;35.798;139.446;2022-09-24T13:34:27;100259.03;;;27.69
48894;BMP280;34710;35.798;139.446;2022-09-24T13:36:59;100264.54;;;27.69
48894;BMP280;34710;35.798;139.446;2022-09-24T13:39:39;100265.21;;;27.73
48894;BMP280;34710;35.798;139.446;2022-09-24T13:42:16;100264.57;;;27.68
48894;BMP280;34710;35.798;139.446;2022-09-24T13:44:49;100267.45;;;27.70
48894;BMP280;34710;35.798;139.446;2022-09-24T13:47:26;100273.49;;;27.66
48894;BMP280;34710;35.798;139.446;2022-09-24T13:50:05;100272.54;;;27.58
48894;BMP280;34710;35.798;139.446;2022-09-24T13:52:38;100272.85;;;27.50
48894;BMP280;34710;35.798;139.446;2022-09-24T13:55:15;100273.43;;;27.45
48894;BMP280;34710;35.798;139.446;2022-09-24T13:57:46;100274.44;;;27.41
48894;BMP280;34710;35.798;139.446;2022-09-24T14:00:18;100278.74;;;27.45
48894;BMP280;34710;35.798;139.446;2022-09-24T14:02:59;100278.38;;;27.45
48894;BMP280;34710;35.798;139.446;2022-09-24T14:05:33;100275.71;;;27.38
48894;BMP280;34710;35.798;139.446;2022-09-24T14:08:06;100275.99;;;27.40
48894;BMP280;34710;35.798;139.446;2022-09-24T14:10:36;100276.12;;;27.38
48894;BMP280;34710;35.798;139.446;2022-09-24T14:13:15;100271.78;;;27.59